Time;durP1;ratioP1;P1;durP2;ratioP2;P2;SDS_P1;SDS_P2;PMS_P1;PMS_P2;Temp;Humidity;BMP_temperature;BMP_pressure;BME280_temperature;BME280_humidity;BME280_pressure;Samples;Min_cycle;Max_cycle;Signal;HPM_P1;HPM_P2
2023/01/14 00:02:13;;;;;;;2.03;1.40;;;23.30;47.60;;;;;;6081359;28;81804;-66
2023/01/14 00:05:14;;;;;;;1.50;1.33;;;23.30;47.60;;;;;;6079869;28;80847;-66
2023/01/14 00:08:14;;;;;;;1.98;1.40;;;23.30;47.60;;;;;;6079475;28;81429;-64
2023/01/14 00:11:15;;;;;;;2.42;1.27;;;23.30;47.70;;;;;;6060860;28;81019;-65
2023/01/14 00:14:15;;;;;;;1.55;1.40;;;23.30;47.80;;;;;;6058203;28;80047;-66
2023/01/14 00:17:16;;;;;;;1.85;1.50;;;23.30;48.20;;;;;;6062309;28;80555;-70
2023/01/14 00:20:17;;;;;;;2.72;1.60;;;23.30;47.90;;;;;;6067045;28;80192;-66
2023/01/14 00:23:17;;;;;;;1.40;1.30;;;23.30;47.90;;;;;;6056379;28;80530;-66
2023/01/14 00:26:18;;;;;;;1.50;1.20;;;23.30;47.70;;;;;;6057541;28;80986;-67
2023/01/14 00:29:19;;;;;;;2.33;1.30;;;23.30;48.00;;;;;;6076734;28;82624;-67
2023/01/14 00:32:20;;;;;;;2.25;1.35;;;23.20;47.70;;;;;;6079629;28;80779;-65
2023/01/14 00:35:20;;;;;;;1.40;1.30;;;23.30;47.80;;;;;;6079432;28;83424;-66
2023/01/14 00:38:21;;;;;;;1.77;1.38;;;23.30;47.70;;;;;;6071616;28;83134;-63
2023/01/14 00:41:21;;;;;;;1.50;1.40;;;23.20;47.90;;;;;;6074100;28;80450;-66
2023/01/14 00:44:22;;;;;;;1.42;1.23;;;23.30;47.90;;;;;;6080596;28;81196;-66
2023/01/14 00:47:22;;;;;;;3.70;1.30;;;23.30;47.90;;;;;;6079304;28;80725;-66
2023/01/14 00:50:23;;;;;;;2.13;1.38;;;23.20;47.70;;;;;;6077576;28;82477;-65
2023/01/14 00:53:23;;;;;;;1.30;1.20;;;23.30;47.70;;;;;;6079232;28;83210;-66
2023/01/14 00:56:24;;;;;;;1.60;1.40;;;23.30;47.70;;;;;;6079491;28;80153;-65
2023/01/14 00:59:24;;;;;;;1.30;1.20;;;23.30;47.70;;;;;;6078620;28;82096;-64
2023/01/14 01:02:25;;;;;;;2.08;1.60;;;23.20;47.60;;;;;;6078940;28;83563;-65
2023/01/14 01:05:26;;;;;;;1.83;1.35;;;23.20;47.60;;;;;;6079669;28;81780;-65
2023/01/14 01:08:26;;;;;;;1.42;1.27;;;23.30;47.50;;;;;;6078249;28;83560;-68
2023/01/14 01:11:27;;;;;;;1.52;1.42;;;23.20;47.50;;;;;;6066897;28;80742;-69
2023/01/14 01:14:28;;;;;;;1.70;1.50;;;23.20;47.50;;;;;;6078279;28;80711;-69
2023/01/14 01:17:30;;;;;;;1.55;1.23;;;23.20;47.50;;;;;;6076146;28;88715;-66
2023/01/14 01:20:30;;;;;;;1.45;1.35;;;23.30;47.70;;;;;;6066015;28;81146;-68
2023/01/14 01:23:31;;;;;;;1.80;1.60;;;23.20;47.70;;;;;;6068462;28;82268;-69
2023/01/14 01:26:32;;;;;;;1.23;1.13;;;23.20;47.50;;;;;;6080394;28;81997;-69
2023/01/14 01:29:32;;;;;;;1.38;1.27;;;23.30;47.60;;;;;;6077839;28;82483;-69
2023/01/14 01:32:33;;;;;;;1.30;1.20;;;23.20;47.70;;;;;;6064918;28;83089;-70
2023/01/14 01:35:33;;;;;;;1.60;1.40;;;23.20;47.80;;;;;;6066008;28;80445;-70
2023/01/14 01:38:34;;;;;;;1.75;1.17;;;23.20;47.80;;;;;;6079012;28;81205;-70
2023/01/14 01:41:35;;;;;;;1.45;1.05;;;23.20;47.80;;;;;;6070657;28;82286;-68
2023/01/14 01:44:35;;;;;;;1.88;1.17;;;23.20;47.70;;;;;;6068929;28;81737;-67
2023/01/14 01:47:36;;;;;;;1.55;1.35;;;23.20;47.50;;;;;;6068035;28;80434;-67
2023/01/14 01:50:36;;;;;;;1.92;1.30;;;23.20;47.60;;;;;;6054319;28;81818;-67
2023/01/14 01:53:37;;;;;;;1.23;1.13;;;23.20;47.50;;;;;;6066568;28;81579;-67
2023/01/14 01:56:37;;;;;;;2.15;1.45;;;23.20;47.40;;;;;;6055012;28;81174;-69
2023/01/14 01:59:38;;;;;;;1.30;1.20;;;23.20;47.40;;;;;;6056778;28;83026;-68
2023/01/14 02:02:39;;;;;;;1.65;1.20;;;23.20;47.70;;;;;;6069415;28;80251;-66
2023/01/14 02:05:39;;;;;;;1.45;1.30;;;23.20;47.30;;;;;;6078087;28;80429;-67
2023/01/14 02:08:40;;;;;;;1.38;1.27;;;23.20;47.30;;;;;;6077722;28;81055;-68
2023/01/14 02:11:40;;;;;;;2.17;1.40;;;23.20;47.60;;;;;;6077577;28;80850;-66
2023/01/14 02:14:41;;;;;;;1.17;1.08;;;23.20;47.30;;;;;;6076891;28;83320;-62
2023/01/14 02:17:42;;;;;;;1.45;1.30;;;23.20;47.30;;;;;;6074474;28;83504;-63
2023/01/14 02:20:43;;;;;;;1.95;1.30;;;23.20;47.80;;;;;;6071934;28;83428;-65
2023/01/14 02:23:45;;;;;;;1.40;1.20;;;23.20;47.00;;;;;;6073861;28;83712;-67
2023/01/14 02:26:46;;;;;;;1.60;1.33;;;23.20;46.90;;;;;;6051315;28;83503;-67
2023/01/14 02:29:46;;;;;;;1.38;1.27;;;23.20;46.90;;;;;;6074814;28;83340;-66
2023/01/14 02:32:47;;;;;;;2.83;1.42;;;23.10;46.90;;;;;;6070122;28;83758;-67
2023/01/14 02:35:49;;;;;;;1.20;1.10;;;23.10;46.60;;;;;;6078923;28;83515;-66
2023/01/14 02:38:49;;;;;;;2.45;1.20;;;23.20;46.40;;;;;;6056198;28;83644;-66
2023/01/14 02:45:17;;;;;;;1.60;1.13;;;23.20;46.20;;;;;;6066104;28;82706;-65
2023/01/14 02:48:18;;;;;;;1.75;1.17;;;23.10;46.30;;;;;;6074209;28;83524;-65
2023/01/14 02:51:18;;;;;;;1.77;1.23;;;23.20;46.10;;;;;;6070992;28;80959;-66
2023/01/14 02:54:20;;;;;;;1.30;1.15;;;23.10;46.00;;;;;;6081870;28;82126;-66
2023/01/14 02:57:21;;;;;;;1.20;1.10;;;23.10;46.10;;;;;;6081609;28;83177;-64
2023/01/14 03:00:22;;;;;;;1.20;1.08;;;23.10;46.00;;;;;;6079993;28;83189;-69
2023/01/14 03:03:24;;;;;;;1.40;1.30;;;23.10;46.00;;;;;;6081742;28;81727;-69
2023/01/14 03:06:26;;;;;;;1.88;1.15;;;23.10;46.00;;;;;;6061925;28;84452;-67
2023/01/14 03:09:26;;;;;;;1.27;1.17;;;23.10;45.80;;;;;;6055111;28;83690;-67
2023/01/14 03:12:27;;;;;;;1.20;1.02;;;23.10;46.30;;;;;;6070855;28;81751;-67
2023/01/14 03:15:27;;;;;;;1.33;1.20;;;23.10;46.30;;;;;;6070788;28;84368;-65
2023/01/14 03:18:28;;;;;;;1.30;1.00;;;23.10;46.30;;;;;;6080088;28;83654;-65
2023/01/14 03:21:29;;;;;;;3.13;1.10;;;23.10;46.70;;;;;;6078607;28;83287;-64
2023/01/14 03:24:30;;;;;;;1.60;1.10;;;23.10;46.40;;;;;;6081614;28;80588;-66
2023/01/14 03:27:30;;;;;;;1.33;1.10;;;23.10;46.30;;;;;;6077539;28;83779;-66
2023/01/14 03:30:31;;;;;;;1.83;1.38;;;23.10;46.30;;;;;;6085642;28;82037;-68
2023/01/14 03:33:33;;;;;;;1.00;0.90;;;23.10;46.50;;;;;;6081117;28;83599;-67
2023/01/14 03:36:34;;;;;;;1.08;0.90;;;23.10;46.20;;;;;;6079103;28;82119;-66
2023/01/14 03:39:34;;;;;;;1.13;0.93;;;23.10;46.50;;;;;;6081319;28;80588;-66
2023/01/14 03:42:35;;;;;;;1.10;1.00;;;23.10;46.50;;;;;;6078596;28;80364;-66
2023/01/14 03:45:36;;;;;;;1.10;1.00;;;23.10;46.40;;;;;;6080017;28;80223;-66
2023/01/14 03:48:36;;;;;;;1.58;1.00;;;23.10;46.40;;;;;;6079381;28;82795;-66
2023/01/14 03:51:37;;;;;;;1.15;1.08;;;23.10;46.30;;;;;;6079268;28;81518;-66
2023/01/14 03:54:37;;;;;;;2.05;1.27;;;23.10;46.20;;;;;;6080157;28;80823;-67
2023/01/14 03:57:38;;;;;;;0.90;0.90;;;23.10;46.10;;;;;;6078418;28;82886;-66
2023/01/14 04:00:38;;;;;;;1.15;1.00;;;23.10;46.00;;;;;;6079473;28;80356;-66
2023/01/14 04:03:39;;;;;;;1.00;1.00;;;23.10;45.80;;;;;;6079993;28;80588;-67
2023/01/14 04:06:39;;;;;;;1.10;1.00;;;23.10;46.00;;;;;;6080648;28;80946;-67
2023/01/14 04:09:40;;;;;;;1.63;1.05;;;23.10;45.90;;;;;;6080579;28;80160;-67
2023/01/14 04:15:20;;;;;;;1.30;1.13;;;23.10;46.00;;;;;;6081229;28;81246;-68
2023/01/14 04:16:01;;;;;;;1.67;1.40;;;23.10;45.90;;;;;;6079983;28;80544;-69
2023/01/14 04:19:01;;;;;;;1.17;1.08;;;23.10;45.90;;;;;;6082044;28;80250;-68
2023/01/14 04:22:02;;;;;;;1.55;1.00;;;23.10;46.10;;;;;;6067683;28;80593;-67
2023/01/14 04:25:02;;;;;;;1.35;1.10;;;23.10;46.10;;;;;;6072900;28;80820;-68
2023/01/14 04:28:03;;;;;;;1.38;0.95;;;23.10;46.20;;;;;;6070216;28;80336;-68
2023/01/14 04:31:03;;;;;;;1.70;1.20;;;23.10;46.10;;;;;;6074831;28;80718;-69
2023/01/14 04:34:04;;;;;;;1.77;1.10;;;23.10;46.00;;;;;;6080053;28;80239;-68
2023/01/14 04:37:04;;;;;;;1.35;1.17;;;23.10;46.10;;;;;;6071003;28;82118;-66
2023/01/14 04:40:05;;;;;;;1.17;1.08;;;23.10;46.10;;;;;;6073038;28;82698;-67
2023/01/14 04:43:05;;;;;;;2.88;0.90;;;23.10;46.30;;;;;;6080097;28;80343;-68
2023/01/14 04:46:06;;;;;;;1.67;1.00;;;23.10;46.60;;;;;;6064214;28;82193;-71
2023/01/14 04:49:07;;;;;;;1.45;1.27;;;23.10;46.90;;;;;;6058305;28;81202;-71
2023/01/14 04:52:07;;;;;;;1.45;1.10;;;23.10;47.20;;;;;;6056972;28;83381;-73
2023/01/14 04:55:08;;;;;;;1.30;0.88;;;23.10;47.20;;;;;;6060894;28;80581;-73
2023/01/14 04:58:08;;;;;;;1.30;0.98;;;23.10;47.40;;;;;;6069144;28;81176;-73
2023/01/14 05:01:09;;;;;;;1.13;0.85;;;23.10;47.40;;;;;;6078535;28;83256;-69
2023/01/14 05:04:09;;;;;;;1.23;0.93;;;23.10;47.40;;;;;;6080021;28;81304;-67
2023/01/14 05:07:10;;;;;;;1.08;0.90;;;23.10;47.60;;;;;;6065979;28;80208;-66
2023/01/14 05:10:10;;;;;;;1.38;1.00;;;23.10;47.80;;;;;;6068209;28;80901;-68
2023/01/14 05:13:11;;;;;;;1.20;1.10;;;23.10;47.80;;;;;;6065779;28;80159;-67
2023/01/14 05:16:11;;;;;;;1.38;0.90;;;23.10;47.30;;;;;;6079263;28;80821;-67
2023/01/14 05:19:12;;;;;;;1.85;1.10;;;23.10;47.00;;;;;;6078590;28;82447;-70
2023/01/14 05:22:12;;;;;;;1.70;1.27;;;23.10;47.10;;;;;;6078696;28;82263;-74
2023/01/14 05:25:13;;;;;;;1.30;1.00;;;23.10;46.80;;;;;;6065863;28;82195;-69
2023/01/14 05:28:13;;;;;;;2.67;1.40;;;23.10;47.00;;;;;;6070010;28;80586;-69
2023/01/14 05:31:14;;;;;;;3.70;1.15;;;23.10;46.80;;;;;;6063787;28;80383;-66
2023/01/14 05:34:17;;;;;;;1.30;0.88;;;23.20;46.80;;;;;;6069941;28;86735;-74
2023/01/14 05:37:17;;;;;;;1.10;0.93;;;23.10;46.70;;;;;;6070095;28;80765;-68
2023/01/14 05:40:18;;;;;;;1.60;1.10;;;23.20;47.10;;;;;;6076696;28;81540;-69
2023/01/14 05:46:38;;;;;;;1.30;1.10;;;23.10;47.30;;;;;;6076393;28;80801;-67
2023/01/14 05:49:38;;;;;;;2.08;1.20;;;23.20;47.80;;;;;;6074592;28;81047;-65
2023/01/14 05:52:39;;;;;;;2.78;0.95;;;23.20;47.80;;;;;;6075249;28;80417;-66
2023/01/14 05:55:39;;;;;;;2.10;1.17;;;23.20;47.90;;;;;;6068610;28;80348;-66
2023/01/14 05:58:40;;;;;;;2.05;1.30;;;23.20;48.10;;;;;;6060673;28;81047;-65
2023/01/14 06:08:18;;;;;;;7.13;1.70;;;23.30;48.00;;;;;;6070125;28;80388;-63
2023/01/14 06:11:22;;;;;;;14.45;6.47;;;23.30;48.00;;;;;;6077027;28;80782;-66
2023/01/14 06:14:22;;;;;;;16.33;8.40;;;23.30;48.60;;;;;;6069425;28;81793;-66
2023/01/14 06:17:27;;;;;;;19.58;9.82;;;23.30;49.00;;;;;;6074998;28;81860;-66
2023/01/14 06:20:28;;;;;;;20.47;11.97;;;23.30;49.50;;;;;;6059338;28;82595;-64
2023/01/14 06:23:29;;;;;;;25.35;11.25;;;23.30;49.30;;;;;;6050989;28;83021;-65
2023/01/14 06:26:29;;;;;;;26.70;14.80;;;23.30;49.50;;;;;;6064932;28;84191;-66
2023/01/14 06:29:30;;;;;;;29.15;16.25;;;23.30;50.20;;;;;;6063395;28;88869;-62
2023/01/14 06:32:30;;;;;;;32.55;16.42;;;23.20;50.20;;;;;;6067334;28;84739;-65
2023/01/14 06:35:31;;;;;;;28.52;15.13;;;23.30;50.90;;;;;;6075623;28;83593;-66
2023/01/14 06:38:31;;;;;;;25.23;11.93;;;23.20;50.50;;;;;;6077051;28;84451;-66
2023/01/14 06:41:32;;;;;;;20.58;11.70;;;23.20;50.10;;;;;;6073621;28;83980;-67
2023/01/14 06:44:32;;;;;;;19.02;10.55;;;23.30;49.90;;;;;;6077028;28;83422;-67
2023/01/14 06:47:33;;;;;;;16.45;9.07;;;23.30;50.00;;;;;;6077521;28;83239;-70
2023/01/14 06:50:33;;;;;;;15.77;9.57;;;23.30;49.70;;;;;;6079078;28;83535;-66
2023/01/14 06:53:34;;;;;;;18.92;10.00;;;23.30;49.60;;;;;;6068815;28;80979;-65
2023/01/14 06:56:34;;;;;;;19.48;9.77;;;23.30;49.50;;;;;;6058302;28;83384;-68
2023/01/14 06:59:35;;;;;;;17.88;7.97;;;23.30;49.30;;;;;;6067718;28;83528;-62
2023/01/14 07:02:36;;;;;;;11.57;7.80;;;23.30;49.00;;;;;;6065676;28;86369;-69
2023/01/14 07:05:36;;;;;;;13.43;7.15;;;23.40;48.80;;;;;;6074043;28;86662;-64
2023/01/14 07:08:37;;;;;;;11.10;6.25;;;23.30;48.40;;;;;;6059788;28;80787;-65
2023/01/14 07:11:37;;;;;;;14.95;6.85;;;23.40;48.30;;;;;;6056979;28;82190;-68
2023/01/14 07:14:38;;;;;;;13.73;6.90;;;23.40;48.10;;;;;;6058592;28;80861;-66
2023/01/14 07:17:38;;;;;;;12.77;6.20;;;23.40;48.20;;;;;;6061913;28;81498;-67
2023/01/14 07:20:39;;;;;;;10.52;5.63;;;23.40;47.90;;;;;;6055794;28;81445;-63
2023/01/14 07:23:39;;;;;;;13.73;4.90;;;23.40;47.90;;;;;;6057654;28;82917;-64
2023/01/14 07:26:40;;;;;;;10.40;5.82;;;23.40;48.20;;;;;;6065187;28;80465;-69
2023/01/14 07:29:40;;;;;;;13.57;4.93;;;23.40;48.60;;;;;;6056263;28;81042;-71
2023/01/14 07:32:41;;;;;;;8.00;4.25;;;23.40;48.60;;;;;;6058877;28;80694;-65
2023/01/14 07:35:43;;;;;;;9.68;4.32;;;23.30;48.90;;;;;;6051286;28;84202;-64
2023/01/14 07:38:44;;;;;;;6.78;4.00;;;23.30;49.50;;;;;;6073433;28;80225;-63
2023/01/14 07:41:44;;;;;;;26.48;14.13;;;23.30;49.20;;;;;;6064032;28;83470;-67
2023/01/14 07:44:54;;;;;;;103.88;53.20;;;23.30;49.00;;;;;;6053005;28;82790;-63
2023/01/14 07:47:55;;;;;;;113.47;56.72;;;23.30;48.80;;;;;;6071953;28;83253;-61
2023/01/14 07:50:56;;;;;;;151.40;85.25;;;23.40;48.60;;;;;;6071837;28;84655;-66
2023/01/14 07:53:56;;;;;;;293.90;157.65;;;23.30;48.60;;;;;;6070578;28;86071;-60
2023/01/14 07:56:57;;;;;;;312.98;170.50;;;23.30;48.20;;;;;;6070293;28;85861;-64
2023/01/14 07:59:57;;;;;;;348.65;182.98;;;23.30;48.00;;;;;;6064207;28;86662;-62
2023/01/14 08:02:58;;;;;;;260.20;140.27;;;23.40;47.90;;;;;;6072910;28;85517;-62
2023/01/14 08:05:58;;;;;;;295.35;153.07;;;23.40;48.30;;;;;;6071905;28;86283;-62
2023/01/14 08:09:01;;;;;;;341.38;172.52;;;23.40;48.00;;;;;;6072701;28;85857;-64
2023/01/14 08:12:01;;;;;;;299.90;155.73;;;23.40;47.70;;;;;;6072494;28;85956;-65
2023/01/14 08:15:02;;;;;;;380.55;191.43;;;23.50;47.80;;;;;;6074616;28;86764;-62
2023/01/14 08:18:03;;;;;;;329.10;172.15;;;23.50;47.80;;;;;;6074123;28;86105;-63
2023/01/14 08:21:03;;;;;;;278.23;141.43;;;23.50;47.90;;;;;;6075248;28;88266;-63
2023/01/14 08:24:04;;;;;;;253.52;130.32;;;23.50;48.20;;;;;;6073766;28;85740;-61
2023/01/14 08:27:04;;;;;;;224.35;113.55;;;23.50;48.00;;;;;;6074488;28;85293;-62
2023/01/14 08:30:05;;;;;;;215.88;107.78;;;23.50;48.00;;;;;;6050834;28;87059;-62
2023/01/14 08:33:05;;;;;;;193.95;97.55;;;23.50;48.10;;;;;;6051413;28;85849;-63
2023/01/14 08:36:06;;;;;;;177.85;90.65;;;23.50;47.90;;;;;;6050514;28;87327;-66
2023/01/14 08:39:06;;;;;;;156.50;84.10;;;23.40;48.50;;;;;;6047621;28;83050;-62
2023/01/14 08:42:07;;;;;;;147.05;77.22;;;23.40;47.80;;;;;;6048717;28;83587;-63
2023/01/14 08:45:07;;;;;;;142.65;77.60;;;23.40;48.00;;;;;;6053490;28;84418;-63
2023/01/14 08:48:08;;;;;;;132.95;69.68;;;23.40;47.90;;;;;;6053210;28;83098;-64
2023/01/14 08:51:09;;;;;;;135.10;71.60;;;23.40;47.90;;;;;;6056577;28;83660;-63
2023/01/14 08:54:09;;;;;;;128.75;66.85;;;23.40;47.60;;;;;;6054302;28;83453;-64
2023/01/14 08:57:10;;;;;;;115.93;60.35;;;23.40;47.70;;;;;;6050161;28;84719;-63
2023/01/14 09:00:11;;;;;;;112.00;57.40;;;23.40;47.50;;;;;;6076743;28;82950;-63
2023/01/14 09:03:11;;;;;;;110.40;56.15;;;23.40;47.70;;;;;;6075433;28;82992;-65
2023/01/14 09:06:12;;;;;;;107.97;53.05;;;23.40;47.80;;;;;;6076273;28;84108;-64
2023/01/14 09:19:10;;;;;;;82.25;42.13;;;23.40;47.30;;;;;;6055051;28;83337;-64
2023/01/14 09:22:11;;;;;;;78.50;40.33;;;23.40;47.30;;;;;;6076418;28;83390;-64
2023/01/14 09:25:11;;;;;;;77.15;40.13;;;23.40;47.30;;;;;;6076449;28;83525;-65
2023/01/14 09:28:12;;;;;;;69.00;37.55;;;23.40;47.10;;;;;;6076227;28;83432;-64
2023/01/14 09:31:12;;;;;;;70.50;37.78;;;23.50;47.20;;;;;;6057125;28;83863;-63
2023/01/14 09:34:13;;;;;;;70.32;34.95;;;23.50;47.30;;;;;;6058374;28;83375;-66
2023/01/14 09:37:14;;;;;;;62.38;34.53;;;23.50;47.20;;;;;;6061657;28;83263;-63
2023/01/14 09:40:15;;;;;;;66.00;33.95;;;23.50;47.00;;;;;;6074953;28;84751;-62
2023/01/14 09:43:15;;;;;;;55.58;30.38;;;23.60;47.10;;;;;;6069178;28;83010;-63
2023/01/14 09:46:16;;;;;;;63.03;31.92;;;23.60;46.80;;;;;;6070227;28;82882;-64
2023/01/14 09:49:16;;;;;;;55.53;29.38;;;23.70;47.90;;;;;;6074839;28;84055;-62
2023/01/14 09:52:17;;;;;;;53.13;28.08;;;23.80;48.30;;;;;;6075763;28;82974;-61
2023/01/14 09:55:17;;;;;;;48.75;25.63;;;23.80;47.80;;;;;;6077474;28;84217;-59
2023/01/14 09:58:18;;;;;;;44.63;24.75;;;23.80;47.10;;;;;;6076382;28;83490;-59
2023/01/14 10:01:19;;;;;;;43.53;23.27;;;23.90;48.30;;;;;;6077457;28;83821;-60
2023/01/14 10:04:19;;;;;;;41.47;23.02;;;23.90;48.70;;;;;;6079145;28;83424;-60
2023/01/14 10:07:20;;;;;;;40.10;22.65;;;23.90;48.60;;;;;;6079806;28;83146;-60
2023/01/14 10:10:20;;;;;;;39.80;21.25;;;23.90;48.70;;;;;;6078477;28;84207;-59
2023/01/14 10:13:21;;;;;;;42.33;22.25;;;23.90;48.20;;;;;;6079021;28;83084;-59
2023/01/14 10:16:21;;;;;;;40.55;20.65;;;23.90;49.10;;;;;;6079702;28;84043;-59
2023/01/14 10:19:22;;;;;;;36.38;20.15;;;23.90;49.10;;;;;;6078607;28;83450;-62
2023/01/14 10:22:22;;;;;;;37.13;20.48;;;24.00;48.80;;;;;;6062424;28;83361;-60
2023/01/14 10:25:23;;;;;;;33.42;18.63;;;24.00;49.20;;;;;;6081402;28;84630;-59
2023/01/14 10:28:24;;;;;;;32.92;18.17;;;24.00;48.90;;;;;;6076583;28;83138;-59
2023/01/14 10:31:24;;;;;;;44.20;19.48;;;24.00;48.20;;;;;;6078171;28;86275;-59
2023/01/14 10:34:25;;;;;;;29.60;16.73;;;24.00;49.70;;;;;;6078087;28;83345;-59
2023/01/14 10:37:25;;;;;;;27.63;16.23;;;24.10;49.10;;;;;;6080868;28;83106;-59
2023/01/14 10:40:26;;;;;;;29.38;16.50;;;24.10;48.80;;;;;;6079366;28;85695;-59
2023/01/14 10:43:26;;;;;;;24.85;14.00;;;24.20;48.90;;;;;;6077416;28;82779;-58
2023/01/14 10:46:27;;;;;;;23.83;14.57;;;24.20;48.90;;;;;;6056801;28;85813;-59
2023/01/14 10:49:27;;;;;;;25.58;15.48;;;24.20;48.80;;;;;;6069553;28;83451;-58
2023/01/14 10:52:28;;;;;;;43.33;23.27;;;24.20;50.80;;;;;;6064589;28;85372;-59
2023/01/14 10:55:29;;;;;;;51.25;27.13;;;24.20;52.50;;;;;;6059991;28;84843;-59
2023/01/14 10:58:30;;;;;;;77.72;32.53;;;24.20;54.00;;;;;;6065606;28;87788;-59
2023/01/14 11:01:31;;;;;;;92.47;36.25;;;24.20;55.30;;;;;;6057859;28;86059;-58
2023/01/14 11:04:31;;;;;;;96.18;36.70;;;24.20;56.30;;;;;;6057115;28;83694;-59
2023/01/14 11:07:32;;;;;;;102.05;40.80;;;24.20;56.20;;;;;;6065062;28;82959;-58
2023/01/14 11:10:32;;;;;;;101.82;37.38;;;24.20;56.70;;;;;;6072228;28;83044;-58
2023/01/14 11:13:33;;;;;;;90.03;35.15;;;24.20;55.80;;;;;;6069592;28;83631;-58
2023/01/14 11:16:36;;;;;;;72.82;32.60;;;24.10;55.50;;;;;;6064193;28;83517;-58
2023/01/14 11:19:36;;;;;;;68.80;29.35;;;24.10;56.00;;;;;;6074502;28;83471;-57
2023/01/14 11:22:37;;;;;;;70.00;28.95;;;24.00;56.10;;;;;;6064006;28;83462;-58
2023/01/14 11:25:39;;;;;;;66.30;27.35;;;24.00;56.30;;;;;;6054160;28;83528;-58
2023/01/14 11:28:40;;;;;;;65.47;25.77;;;24.00;56.30;;;;;;6062124;28;87743;-58
2023/01/14 11:31:41;;;;;;;54.15;24.38;;;24.00;56.00;;;;;;6060594;28;84929;-58
2023/01/14 11:34:41;;;;;;;62.15;24.30;;;24.00;55.80;;;;;;6057638;28;83609;-57
2023/01/14 11:37:43;;;;;;;52.00;22.15;;;24.10;55.30;;;;;;6054474;28;83239;-59
2023/01/14 11:44:03;;;;;;;50.30;19.48;;;24.30;55.70;;;;;;6063297;28;83897;-59
2023/01/14 11:47:03;;;;;;;46.15;18.85;;;24.30;54.60;;;;;;6074166;28;85662;-60
2023/01/14 11:50:04;;;;;;;44.35;18.60;;;24.20;54.30;;;;;;6063055;28;83375;-59
2023/01/14 11:53:04;;;;;;;40.55;17.55;;;24.20;54.20;;;;;;6066133;28;88172;-59
2023/01/14 11:56:05;;;;;;;41.35;17.98;;;24.10;54.10;;;;;;6047678;28;87624;-59
2023/01/14 11:59:05;;;;;;;35.75;15.43;;;24.10;54.30;;;;;;6073658;28;83576;-59
2023/01/14 12:02:06;;;;;;;38.58;16.20;;;24.00;54.90;;;;;;6067321;28;83647;-59
2023/01/14 12:05:06;;;;;;;34.92;14.68;;;24.10;54.90;;;;;;6072217;28;83447;-60
2023/01/14 12:08:07;;;;;;;31.80;14.63;;;24.10;54.00;;;;;;6061784;28;83426;-60
2023/01/14 12:11:07;;;;;;;32.05;12.85;;;24.10;53.60;;;;;;6056866;28;83357;-60
2023/01/14 12:17:28;;;;;;;30.23;13.20;;;24.00;53.50;;;;;;6042814;28;84534;-60
2023/01/14 12:20:28;;;;;;;31.52;12.18;;;24.00;54.20;;;;;;6051071;28;86215;-59
2023/01/14 12:23:29;;;;;;;30.25;11.95;;;24.00;53.50;;;;;;6044665;28;85733;-59
2023/01/14 12:26:29;;;;;;;27.48;10.98;;;23.90;53.50;;;;;;6046809;28;83242;-60
2023/01/14 12:29:30;;;;;;;26.88;10.00;;;23.90;53.30;;;;;;6049485;28;84761;-60
2023/01/14 12:32:30;;;;;;;22.27;10.18;;;23.90;53.20;;;;;;6045347;28;87593;-60
2023/01/14 12:35:31;;;;;;;19.13;8.65;;;23.90;52.90;;;;;;6045553;28;86019;-60
2023/01/14 12:48:30;;;;;;;15.88;7.53;;;23.80;51.90;;;;;;6063177;28;81674;-59
2023/01/14 12:51:30;;;;;;;34.17;14.50;;;23.80;51.50;;;;;;6070490;28;83239;-58
2023/01/14 12:54:31;;;;;;;86.88;48.63;;;23.80;51.40;;;;;;6065766;28;87523;-59
2023/01/14 12:57:31;;;;;;;139.23;74.60;;;23.80;51.20;;;;;;6064558;28;83200;-58
2023/01/14 13:00:32;;;;;;;171.85;97.22;;;23.80;50.90;;;;;;6056508;28;83788;-59
2023/01/14 13:03:32;;;;;;;174.38;94.60;;;23.80;50.80;;;;;;6052423;28;83131;-59
2023/01/14 13:06:33;;;;;;;160.75;85.38;;;23.80;50.70;;;;;;6048543;28;83706;-59
2023/01/14 13:09:33;;;;;;;140.05;78.97;;;23.80;50.60;;;;;;6057738;28;84723;-59
2023/01/14 13:12:34;;;;;;;133.52;68.25;;;23.80;50.30;;;;;;6053877;28;83217;-59
2023/01/14 13:15:35;;;;;;;121.03;66.25;;;23.80;50.10;;;;;;6054270;28;85142;-59
2023/01/14 13:18:35;;;;;;;110.68;59.80;;;23.80;49.90;;;;;;6047983;28;84381;-59
2023/01/14 13:21:36;;;;;;;98.30;53.20;;;23.80;50.00;;;;;;6042513;28;86078;-59
2023/01/14 13:24:37;;;;;;;89.53;48.47;;;23.80;49.70;;;;;;6049842;28;83603;-59
2023/01/14 13:27:37;;;;;;;88.65;45.60;;;23.80;50.10;;;;;;6053472;28;84572;-59
2023/01/14 13:30:38;;;;;;;81.43;41.72;;;23.80;50.10;;;;;;6053975;28;86692;-61
2023/01/14 13:33:39;;;;;;;69.22;38.42;;;23.80;50.10;;;;;;6061862;28;82939;-60
2023/01/14 13:36:40;;;;;;;69.35;35.13;;;23.70;50.20;;;;;;6050843;28;83491;-60
2023/01/14 13:39:41;;;;;;;57.95;31.60;;;23.80;49.90;;;;;;6051292;28;82890;-61
2023/01/14 13:42:42;;;;;;;58.38;31.90;;;23.80;49.80;;;;;;6068832;28;84845;-60
2023/01/14 13:45:42;;;;;;;55.35;29.70;;;23.80;49.50;;;;;;6070655;28;83478;-59
2023/01/14 13:48:44;;;;;;;50.00;28.80;;;24.00;49.10;;;;;;6072394;28;87819;-60
2023/01/14 13:51:44;;;;;;;48.42;26.17;;;24.20;48.30;;;;;;6052633;28;84994;-60
2023/01/14 13:54:45;;;;;;;41.35;23.55;;;24.40;48.20;;;;;;6044335;28;86733;-60
2023/01/14 13:57:49;;;;;;;36.45;19.60;;;24.60;47.50;;;;;;6048652;28;83535;-59
2023/01/14 14:00:50;;;;;;;32.47;17.77;;;24.80;47.00;;;;;;6053424;28;83609;-60
2023/01/14 14:03:50;;;;;;;32.40;17.05;;;25.00;46.60;;;;;;6052152;28;83333;-61
2023/01/14 14:06:51;;;;;;;34.30;16.27;;;25.20;46.20;;;;;;6058225;28;83120;-60
2023/01/14 14:09:51;;;;;;;28.58;14.40;;;25.30;45.60;;;;;;6051695;28;83908;-60
2023/01/14 14:16:11;;;;;;;26.80;13.30;;;25.60;44.50;;;;;;6048377;28;84238;-60
2023/01/14 14:19:12;;;;;;;26.92;12.68;;;25.90;43.90;;;;;;6051369;28;83112;-58
2023/01/14 14:22:12;;;;;;;18.10;11.73;;;26.20;43.40;;;;;;6050862;28;83764;-61
2023/01/14 14:25:13;;;;;;;20.20;10.95;;;26.40;42.80;;;;;;6049153;28;84078;-60
2023/01/14 14:28:14;;;;;;;18.35;9.95;;;26.50;42.40;;;;;;6041139;28;85961;-61
2023/01/14 14:31:16;;;;;;;17.70;10.02;;;26.40;42.20;;;;;;6051242;28;82853;-60
2023/01/14 14:34:21;;;;;;;13.30;8.82;;;26.30;42.50;;;;;;6046937;28;88647;-59
2023/01/14 14:37:21;;;;;;;12.15;8.15;;;26.20;42.60;;;;;;6055621;28;83285;-59
2023/01/14 14:40:22;;;;;;;17.13;8.50;;;26.00;42.90;;;;;;6071922;28;82001;-59
2023/01/14 14:43:22;;;;;;;13.30;7.47;;;25.90;42.90;;;;;;6056353;28;83576;-59
2023/01/14 14:46:23;;;;;;;20.35;7.95;;;25.80;43.20;;;;;;6058291;28;80716;-59
2023/01/14 14:49:24;;;;;;;13.15;6.65;;;25.70;43.50;;;;;;6065568;28;81218;-59
2023/01/14 14:52:24;;;;;;;10.48;6.35;;;25.50;43.90;;;;;;6059529;28;84763;-59
2023/01/14 14:55:25;;;;;;;15.98;6.47;;;25.30;44.30;;;;;;6056326;28;86197;-60
2023/01/14 14:58:25;;;;;;;12.18;7.47;;;25.10;44.10;;;;;;6062795;28;80447;-59
2023/01/14 15:01:26;;;;;;;11.57;6.28;;;25.00;44.40;;;;;;6065202;28;83946;-59
2023/01/14 15:04:27;;;;;;;13.43;6.90;;;24.90;44.60;;;;;;6073055;28;80631;-59
2023/01/14 15:07:27;;;;;;;10.52;6.47;;;24.70;44.50;;;;;;6069286;28;85817;-58
2023/01/14 15:10:28;;;;;;;10.10;5.60;;;24.60;44.50;;;;;;6057067;28;83232;-59
2023/01/14 15:13:28;;;;;;;11.88;5.97;;;24.40;44.40;;;;;;6053450;28;80526;-59
2023/01/14 15:16:33;;;;;;;10.40;5.78;;;24.30;44.40;;;;;;6065404;28;81730;-59
2023/01/14 15:19:33;;;;;;;9.70;5.88;;;24.30;44.40;;;;;;6057129;28;80643;-59
2023/01/14 15:22:34;;;;;;;11.32;6.30;;;24.20;44.40;;;;;;6066524;28;80752;-59
2023/01/14 15:25:34;;;;;;;12.70;6.78;;;24.10;44.40;;;;;;6057123;28;80394;-60
2023/01/14 15:28:35;;;;;;;10.75;6.03;;;24.00;44.40;;;;;;6057055;28;82912;-60
2023/01/14 15:31:35;;;;;;;11.77;6.47;;;24.00;44.40;;;;;;6054847;28;80851;-60
2023/01/14 15:34:36;;;;;;;11.55;6.93;;;24.00;44.50;;;;;;6076036;28;80961;-60
2023/01/14 15:37:36;;;;;;;13.93;8.00;;;23.90;44.30;;;;;;6080020;28;80470;-60
2023/01/14 15:40:37;;;;;;;13.40;8.00;;;23.80;44.20;;;;;;6081689;28;80732;-59
2023/01/14 15:43:39;;;;;;;15.48;8.20;;;23.80;44.10;;;;;;6080408;28;80426;-59
2023/01/14 15:46:39;;;;;;;14.40;9.55;;;23.80;44.40;;;;;;6081321;28;81819;-58
2023/01/14 15:49:40;;;;;;;16.35;8.85;;;23.70;44.30;;;;;;6079976;28;80283;-60
2023/01/14 15:52:42;;;;;;;17.42;10.18;;;23.80;44.40;;;;;;6047813;28;84845;-58
2023/01/14 15:55:43;;;;;;;20.98;10.55;;;23.70;44.70;;;;;;6069551;28;83166;-59
2023/01/14 15:58:43;;;;;;;20.08;10.88;;;23.60;43.90;;;;;;6073193;28;83640;-60
2023/01/14 16:01:44;;;;;;;16.58;11.10;;;23.60;42.70;;;;;;6072152;28;83359;-59
2023/01/14 16:04:44;;;;;;;17.88;10.32;;;23.60;42.20;;;;;;6072094;28;83114;-61
2023/01/14 16:07:45;;;;;;;20.08;11.82;;;23.50;43.00;;;;;;6070783;28;90806;-58
2023/01/14 16:10:46;;;;;;;18.60;10.35;;;23.50;41.30;;;;;;6071349;28;84076;-60